Time;durP1;ratioP1;P1;durP2;ratioP2;P2;SDS_P1;SDS_P2;PMS_P1;PMS_P2;Temp;Humidity;BMP_temperature;BMP_pressure;BME280_temperature;BME280_humidity;BME280_pressure;Samples;Min_cycle;Max_cycle;Signal;HPM_P1;HPM_P2
2023/10/19 00:02:07;;;;;;;10.37;7.40;;;;;;;11.32;87.19;97302.97;6256457;22;43107;-78
2023/10/19 00:04:36;;;;;;;9.77;7.33;;;;;;;11.38;86.98;97314.81;6281631;22;42509;-78
2023/10/19 00:07:04;;;;;;;9.07;6.93;;;;;;;11.44;87.13;97316.91;6256966;22;40397;-78
2023/10/19 00:09:37;;;;;;;8.30;6.93;;;;;;;11.43;87.96;97309.94;6282099;22;41342;-78
2023/10/19 00:12:09;;;;;;;11.27;7.83;;;;;;;11.42;87.60;97297.66;6232739;22;42118;-78
2023/10/19 00:14:37;;;;;;;10.63;7.60;;;;;;;11.44;87.94;97301.84;6257396;22;41963;-78
2023/10/19 00:17:10;;;;;;;10.57;7.53;;;;;;;11.44;88.05;97301.84;6258010;22;41036;-78
2023/10/19 00:19:39;;;;;;;10.57;7.73;;;;;;;11.38;89.07;97293.59;6283050;22;40838;-78
2023/10/19 00:22:14;;;;;;;9.83;8.30;;;;;;;11.45;88.96;97308.84;6257770;22;41563;-78
2023/10/19 00:24:44;;;;;;;9.97;7.83;;;;;;;11.36;88.04;97284.97;6233805;22;42470;-78
2023/10/19 00:27:17;;;;;;;9.70;7.27;;;;;;;11.30;87.82;97283.72;6257701;22;38931;-78
2023/10/19 00:29:49;;;;;;;9.73;8.07;;;;;;;11.38;87.34;97290.94;6257961;22;40646;-78
2023/10/19 00:32:18;;;;;;;13.60;9.50;;;;;;;11.50;87.47;97295.13;6255437;22;41734;-78
2023/10/19 00:34:51;;;;;;;9.53;7.37;;;;;;;11.54;87.54;97301.84;6206016;22;42699;-77
2023/10/19 00:37:25;;;;;;;9.43;7.60;;;;;;;11.44;87.19;97299.22;6282423;22;39003;-78
2023/10/19 00:39:55;;;;;;;9.67;7.03;;;;;;;11.55;86.73;97303.53;6257011;22;41701;-78
2023/10/19 00:42:30;;;;;;;7.47;6.70;;;;;;;11.59;86.67;97309.41;6283177;22;43977;-78
2023/10/19 00:45:04;;;;;;;9.87;7.20;;;;;;;11.62;86.69;97312.56;6257251;22;42290;-78
2023/10/19 00:47:39;;;;;;;9.20;7.23;;;;;;;11.63;86.41;97294.84;6258328;22;40256;-78
2023/10/19 00:50:12;;;;;;;8.83;6.77;;;;;;;11.64;86.19;97291.22;6282734;22;40867;-78
2023/10/19 00:52:43;;;;;;;9.20;7.97;;;;;;;11.61;86.58;97297.69;6257315;22;44553;-78
2023/10/19 00:55:12;;;;;;;8.53;6.70;;;;;;;11.62;86.21;97288.72;6256940;22;41787;-79
2023/10/19 00:57:45;;;;;;;9.57;7.30;;;;;;;11.64;86.29;97285.94;6257382;22;40031;-78
2023/10/19 01:00:29;;;;;;;9.50;7.07;;;;;;;11.64;86.77;97276.16;6257162;22;42118;-78
2023/10/19 01:02:59;;;;;;;10.17;7.83;;;;;;;11.62;86.75;97272.81;6257104;22;41773;-78
2023/10/19 01:05:32;;;;;;;10.40;8.23;;;;;;;11.37;87.12;97231.00;6283165;22;41347;-78
2023/10/19 01:08:02;;;;;;;9.10;7.77;;;;;;;11.58;87.02;97260.84;6257398;22;39554;-78
2023/10/19 01:10:31;;;;;;;10.57;8.00;;;;;;;11.57;87.56;97253.84;6232340;22;41467;-77
2023/10/19 01:13:00;;;;;;;10.37;8.43;;;;;;;11.57;87.60;97253.03;6283114;22;42149;-77
2023/10/19 01:15:31;;;;;;;10.20;8.90;;;;;;;11.50;87.67;97232.34;6284171;22;43166;-77
2023/10/19 01:18:01;;;;;;;11.20;7.83;;;;;;;11.58;88.19;97242.28;6258501;22;39274;-78
2023/10/19 01:20:48;;;;;;;9.47;7.47;;;;;;;11.60;87.50;97240.31;6259016;22;40987;-78
2023/10/19 01:23:25;;;;;;;8.77;7.60;;;;;;;11.62;87.88;97235.69;6262781;22;42787;-78
2023/10/19 01:26:04;;;;;;;9.17;8.00;;;;;;;11.36;87.85;97202.81;6257384;22;42601;-78
2023/10/19 01:28:47;;;;;;;11.43;8.70;;;;;;;11.60;87.82;97242.13;6282365;22;39191;-78
2023/10/19 01:31:22;;;;;;;12.20;8.20;;;;;;;11.58;87.85;97236.13;6283270;22;41922;-78
2023/10/19 01:33:50;;;;;;;11.47;8.13;;;;;;;11.53;88.15;97228.59;6257157;22;41853;-79
2023/10/19 01:36:25;;;;;;;10.73;9.07;;;;;;;11.52;88.74;97218.97;6232274;22;40794;-78
2023/10/19 01:38:55;;;;;;;10.20;8.90;;;;;;;11.50;89.11;97213.81;6282946;22;40132;-79
2023/10/19 01:41:24;;;;;;;12.53;8.97;;;;;;;11.30;89.42;97177.72;6257389;22;40971;-79
2023/10/19 01:43:53;;;;;;;13.77;8.93;;;;;;;11.52;89.31;97217.16;6282542;22;41903;-80
2023/10/19 01:46:22;;;;;;;13.20;9.60;;;;;;;11.51;90.17;97212.81;6257744;22;41189;-79
2023/10/19 01:48:55;;;;;;;12.73;9.23;;;;;;;11.52;89.75;97213.66;6257016;22;40514;-79
2023/10/19 01:51:24;;;;;;;9.90;8.20;;;;;;;11.55;89.38;97212.56;6283077;22;40980;-78
2023/10/19 01:53:51;;;;;;;10.80;7.73;;;;;;;11.40;89.00;97189.13;6257225;22;41480;-80
2023/10/19 01:56:21;;;;;;;9.53;7.57;;;;;;;11.58;88.91;97207.81;6283306;22;42470;-78
2023/10/19 01:58:51;;;;;;;11.47;8.67;;;;;;;11.60;88.37;97200.56;6257508;22;40085;-79
2023/10/19 02:01:28;;;;;;;9.03;7.70;;;;;;;11.63;88.21;97205.56;6282972;22;41473;-79
2023/10/19 02:03:58;;;;;;;12.67;9.07;;;;;;;11.62;89.18;97197.75;6257215;22;42043;-79
2023/10/19 02:06:36;;;;;;;13.50;9.03;;;;;;;11.63;89.11;97199.41;6257732;22;40915;-79
2023/10/19 02:09:09;;;;;;;11.27;9.17;;;;;;;11.62;88.83;97193.28;6231876;22;40524;-79
2023/10/19 02:11:41;;;;;;;12.30;9.20;;;;;;;11.60;89.24;97189.94;6283069;22;42780;-79
2023/10/19 02:14:13;;;;;;;10.77;8.33;;;;;;;11.58;89.02;97181.31;6284481;22;43613;-79
2023/10/19 02:16:43;;;;;;;11.47;9.30;;;;;;;11.56;88.95;97177.94;6259392;22;42245;-79
2023/10/19 02:19:10;;;;;;;13.20;9.73;;;;;;;11.56;90.15;97172.66;6311273;22;40190;-80
2023/10/19 02:21:39;;;;;;;13.90;9.37;;;;;;;11.48;89.85;97160.13;6311404;22;42758;-78
2023/10/19 02:24:07;;;;;;;13.30;9.97;;;;;;;11.50;90.22;97167.91;6283817;22;44993;-78
2023/10/19 02:26:37;;;;;;;10.60;8.57;;;;;;;11.54;90.06;97164.00;6311135;22;42871;-78
2023/10/19 02:29:09;;;;;;;12.93;9.93;;;;;;;11.57;90.33;97160.22;6284803;22;39125;-78
2023/10/19 02:31:39;;;;;;;14.07;10.57;;;;;;;11.57;90.26;97152.28;6284209;22;41823;-78
2023/10/19 02:34:07;;;;;;;11.97;8.93;;;;;;;11.50;90.43;97141.41;6233492;22;41729;-78
2023/10/19 02:36:37;;;;;;;11.27;9.23;;;;;;;11.58;89.93;97152.13;6258424;22;44431;-78
2023/10/19 02:39:07;;;;;;;13.40;9.70;;;;;;;11.62;89.90;97150.03;6233773;22;39194;-78
2023/10/19 02:41:36;;;;;;;15.47;9.63;;;;;;;11.65;90.12;97150.56;6258484;22;41942;-77
2023/10/19 02:44:09;;;;;;;15.13;9.77;;;;;;;11.64;90.45;97143.59;6284370;22;41917;-77
2023/10/19 02:46:38;;;;;;;13.20;10.13;;;;;;;11.63;89.90;97149.03;6258820;22;41470;-78
2023/10/19 02:49:10;;;;;;;13.80;9.73;;;;;;;11.62;89.77;97140.25;6258315;22;38851;-78
2023/10/19 02:51:38;;;;;;;10.37;9.13;;;;;;;11.48;89.75;97112.41;6258688;22;41154;-78
2023/10/19 02:54:07;;;;;;;10.83;8.80;;;;;;;11.68;89.28;97134.38;6258147;22;42962;-78
2023/10/19 02:56:36;;;;;;;9.03;7.77;;;;;;;11.70;89.41;97131.59;6233607;22;41409;-78
2023/10/19 02:59:03;;;;;;;10.27;7.87;;;;;;;11.75;88.92;97130.19;6311040;22;40435;-78
2023/10/19 03:01:34;;;;;;;12.10;8.43;;;;;;;11.79;88.80;97120.13;6232840;22;40542;-78
2023/10/19 03:04:02;;;;;;;11.63;8.60;;;;;;;11.81;88.44;97123.47;6233110;22;41882;-78
2023/10/19 03:06:32;;;;;;;10.93;8.80;;;;;;;11.83;88.35;97116.22;6282697;22;41511;-79
2023/10/19 03:09:12;;;;;;;9.70;8.60;;;;;;;11.84;88.37;97109.94;6257127;22;39001;-79
2023/10/19 03:11:41;;;;;;;11.10;8.87;;;;;;;11.85;88.36;97108.97;6256916;22;41951;-78
2023/10/19 03:14:08;;;;;;;12.53;8.73;;;;;;;11.87;88.31;97106.97;6258110;22;44687;-78
2023/10/19 03:16:41;;;;;;;13.57;9.90;;;;;;;11.87;88.05;97102.50;6258414;22;41377;-78
2023/10/19 03:19:08;;;;;;;10.10;8.80;;;;;;;11.84;88.31;97081.59;6258169;22;38654;-78
2023/10/19 03:21:42;;;;;;;11.00;9.03;;;;;;;11.94;87.80;97093.97;6258430;22;42862;-79
2023/10/19 03:24:22;;;;;;;11.50;8.17;;;;;;;11.90;87.69;97076.66;6232264;22;42831;-78
2023/10/19 03:26:49;;;;;;;9.43;7.50;;;;;;;12.02;87.18;97091.41;6234212;22;41118;-78
2023/10/19 03:29:22;;;;;;;11.97;8.00;;;;;;;12.02;87.27;97086.94;6256678;22;38961;-78
2023/10/19 03:31:52;;;;;;;10.90;8.67;;;;;;;12.04;87.10;97092.94;6258571;22;43193;-78
2023/10/19 03:34:23;;;;;;;10.83;8.33;;;;;;;12.01;87.09;97087.91;6256302;22;41579;-78
2023/10/19 03:36:51;;;;;;;9.97;8.10;;;;;;;12.05;87.27;97083.16;6256987;22;42466;-78
2023/10/19 03:39:21;;;;;;;12.33;9.77;;;;;;;12.09;87.21;97092.50;6282353;22;40064;-78
2023/10/19 03:41:51;;;;;;;12.23;9.07;;;;;;;12.07;87.04;97087.34;6282320;22;41050;-78
2023/10/19 03:44:24;;;;;;;10.63;8.33;;;;;;;12.10;87.20;97087.06;6256506;22;41656;-78
2023/10/19 03:46:57;;;;;;;10.07;8.07;;;;;;;12.10;87.06;97086.22;6282669;22;42078;-79
2023/10/19 03:49:30;;;;;;;10.37;7.70;;;;;;;12.11;87.03;97085.22;6256608;22;39050;-77
2023/10/19 03:52:02;;;;;;;10.77;8.00;;;;;;;12.09;86.75;97080.06;6310035;22;42615;-78
2023/10/19 03:54:32;;;;;;;9.00;7.43;;;;;;;12.10;87.05;97080.91;6256230;22;41694;-78
2023/10/19 03:57:05;;;;;;;9.83;7.50;;;;;;;12.11;86.85;97082.59;6256638;22;41390;-78
2023/10/19 03:59:34;;;;;;;10.47;7.60;;;;;;;12.14;86.66;97079.59;6256491;22;38778;-79
2023/10/19 04:02:09;;;;;;;9.07;7.47;;;;;;;12.14;86.70;97063.69;6281839;22;42329;-79
2023/10/19 04:04:38;;;;;;;11.00;8.27;;;;;;;12.17;86.81;97076.66;6281909;22;42805;-78
2023/10/19 04:07:13;;;;;;;8.80;7.70;;;;;;;12.19;86.83;97064.09;6282516;22;41163;-77
2023/10/19 04:09:56;;;;;;;9.63;7.53;;;;;;;12.19;86.78;97062.25;6256499;22;40001;-79
2023/10/19 04:12:24;;;;;;;9.97;7.83;;;;;;;12.12;86.66;97055.03;6283192;22;40863;-78
2023/10/19 04:14:53;;;;;;;10.90;8.80;;;;;;;12.22;86.79;97069.09;6284181;22;42997;-78
2023/10/19 04:17:23;;;;;;;11.50;8.63;;;;;;;12.23;86.57;97060.16;6259086;22;41728;-77
2023/10/19 04:19:52;;;;;;;9.90;7.53;;;;;;;12.24;86.81;97057.31;6258900;22;40275;-78
2023/10/19 04:22:23;;;;;;;10.50;8.23;;;;;;;12.16;86.70;97038.69;6259624;22;41822;-78
2023/10/19 04:24:51;;;;;;;11.23;7.93;;;;;;;12.25;86.64;97042.25;6258665;22;43033;-78
2023/10/19 04:27:21;;;;;;;7.67;6.70;;;;;;;12.31;86.55;97054.09;6284511;22;43519;-78
2023/10/19 04:29:49;;;;;;;8.83;7.87;;;;;;;12.32;86.33;97042.50;6284307;22;39954;-78
2023/10/19 04:32:25;;;;;;;10.17;7.77;;;;;;;12.36;85.97;97050.00;6284651;22;40931;-78
2023/10/19 04:34:54;;;;;;;8.40;7.03;;;;;;;12.34;86.01;97029.91;6258409;22;41376;-78
2023/10/19 04:37:23;;;;;;;10.47;8.17;;;;;;;12.39;86.09;97041.72;6284368;22;43082;-78
2023/10/19 04:39:51;;;;;;;9.03;7.63;;;;;;;12.28;86.04;97014.56;6259215;22;39092;-78
2023/10/19 04:42:22;;;;;;;10.87;8.10;;;;;;;12.42;86.27;97036.13;6256502;22;40280;-78
2023/10/19 04:44:50;;;;;;;9.23;7.40;;;;;;;12.40;86.07;97030.13;6233034;22;41703;-77
2023/10/19 04:47:17;;;;;;;10.53;6.97;;;;;;;12.37;86.16;97022.44;6257703;22;42557;-78
2023/10/19 04:49:45;;;;;;;9.80;7.50;;;;;;;12.48;86.48;97032.88;6257674;22;41060;-78
2023/10/19 04:52:14;;;;;;;11.23;8.30;;;;;;;12.48;85.98;97027.56;6310578;22;41866;-78
2023/10/19 04:54:42;;;;;;;9.07;8.03;;;;;;;12.50;86.10;97030.88;6257293;22;41907;-78
2023/10/19 04:57:10;;;;;;;9.50;7.60;;;;;;;12.42;85.96;97012.22;6257574;22;41318;-79
2023/10/19 04:59:38;;;;;;;9.13;7.40;;;;;;;12.54;85.89;97031.41;6257394;22;40577;-78
2023/10/19 05:02:05;;;;;;;10.60;7.93;;;;;;;12.54;86.35;97021.63;6283247;22;40844;-79
2023/10/19 05:04:33;;;;;;;12.77;8.90;;;;;;;12.49;86.30;97015.94;6256912;22;43078;-77
2023/10/19 05:07:03;;;;;;;9.90;7.03;;;;;;;12.61;86.20;97031.66;6257511;22;42244;-79
2023/10/19 05:09:33;;;;;;;11.07;8.63;;;;;;;12.63;86.03;97029.66;6257725;22;38759;-79
2023/10/19 05:12:01;;;;;;;9.83;7.47;;;;;;;12.64;85.94;97032.16;6258016;22;42899;-78
2023/10/19 05:14:28;;;;;;;10.03;7.50;;;;;;;12.56;85.89;97014.34;6258316;22;42857;-79
2023/10/19 05:16:56;;;;;;;9.13;7.90;;;;;;;12.68;85.89;97019.41;6259057;22;40944;-79
2023/10/19 05:19:23;;;;;;;12.47;9.37;;;;;;;12.68;85.92;97022.06;6312255;22;40170;-78
2023/10/19 05:21:52;;;;;;;11.73;8.33;;;;;;;12.67;86.41;97021.22;6259660;22;40922;-79
2023/10/19 05:24:19;;;;;;;13.03;9.50;;;;;;;12.67;86.84;97025.72;6258274;22;42060;-78
2023/10/19 05:26:49;;;;;;;11.00;8.77;;;;;;;12.66;86.42;97026.69;6284266;22;41720;-77
2023/10/19 05:29:16;;;;;;;10.47;8.10;;;;;;;12.47;86.52;97001.16;6258587;22;40444;-78
2023/10/19 05:31:44;;;;;;;11.43;8.50;;;;;;;12.68;86.33;97032.69;6259049;22;40476;-78
2023/10/19 05:34:11;;;;;;;8.90;7.60;;;;;;;12.69;86.39;97031.72;6283935;22;41798;-78
2023/10/19 05:36:40;;;;;;;10.90;8.77;;;;;;;12.61;86.26;97021.03;6258547;22;42262;-78
2023/10/19 05:39:08;;;;;;;9.90;7.90;;;;;;;12.71;86.42;97016.47;6258284;22;39234;-78
2023/10/19 05:41:35;;;;;;;10.00;8.30;;;;;;;12.73;86.23;97019.78;6257447;22;41040;-78
2023/10/19 05:44:05;;;;;;;12.50;9.53;;;;;;;12.52;86.51;96990.91;6256481;22;43089;-78
2023/10/19 05:46:33;;;;;;;11.90;9.40;;;;;;;12.72;86.98;97034.06;6257312;22;41037;-78
2023/10/19 05:49:03;;;;;;;10.77;8.37;;;;;;;12.70;86.95;97009.47;6282810;22;40931;-78
2023/10/19 05:51:31;;;;;;;9.63;7.77;;;;;;;12.72;86.96;97026.09;6257398;22;40777;-78
2023/10/19 05:54:02;;;;;;;12.03;8.50;;;;;;;12.75;86.88;97020.44;6309769;22;43790;-81
2023/10/19 05:56:30;;;;;;;8.87;8.00;;;;;;;12.77;86.67;97021.13;6283269;22;42518;-81
2023/10/19 08:06:14;;;;;;;16.50;11.93;;;;;;;13.60;100.00;96999.25;5109136;28;20560;-79
2023/10/19 08:08:42;;;;;;;15.73;12.53;;;;;;;14.16;100.00;96996.94;5107816;28;39915;-82
2023/10/19 08:11:09;;;;;;;20.77;13.97;;;;;;;14.65;100.00;96997.84;5107614;28;42863;-80
2023/10/19 08:13:37;;;;;;;18.90;12.97;;;;;;;15.10;100.00;97000.78;5091749;28;43268;-81
2023/10/19 08:16:07;;;;;;;20.33;13.57;;;;;;;15.41;98.21;97008.91;5108878;28;42225;-80
2023/10/19 08:18:35;;;;;;;14.97;12.40;;;;;;;15.61;95.76;96997.84;5112841;28;40508;-79
2023/10/19 08:21:02;;;;;;;14.83;11.33;;;;;;;15.84;93.94;97013.94;5113975;28;42183;-81
2023/10/19 08:23:31;;;;;;;14.47;12.20;;;;;;;16.03;92.26;97019.69;5092078;28;43208;-80
2023/10/19 08:25:59;;;;;;;15.80;11.50;;;;;;;16.16;91.20;97019.13;5108564;28;42363;-81
2023/10/19 08:28:27;;;;;;;12.47;11.00;;;;;;;16.24;90.36;97003.03;5110003;28;40692;-82
2023/10/19 08:30:56;;;;;;;12.77;10.43;;;;;;;16.42;89.74;97008.13;5108625;28;41910;-81
2023/10/19 08:33:25;;;;;;;17.77;12.93;;;;;;;16.44;89.20;97003.44;5108519;28;41636;-80
2023/10/19 08:35:54;;;;;;;20.83;12.10;;;;;;;16.43;88.57;97005.28;5108394;28;41077;-80
2023/10/19 08:38:23;;;;;;;15.57;11.63;;;;;;;16.42;88.24;97008.13;5091544;28;38925;-82
2023/10/19 08:40:51;;;;;;;16.67;11.27;;;;;;;16.45;88.44;96999.72;5107670;28;42427;-82
2023/10/19 08:43:21;;;;;;;16.47;11.13;;;;;;;16.21;88.10;96949.97;5089443;28;43228;-81
2023/10/19 08:45:49;;;;;;;18.00;13.00;;;;;;;16.58;87.68;97001.81;5108208;28;43337;-80
2023/10/19 08:48:16;;;;;;;19.27;12.87;;;;;;;16.29;87.01;96951.78;5108485;28;40987;-82
2023/10/19 08:50:46;;;;;;;20.77;12.67;;;;;;;16.59;86.93;97006.97;5141336;27;41425;-83
2023/10/19 08:53:14;;;;;;;20.70;13.73;;;;;;;16.66;87.14;97005.28;5108100;28;42699;-82
2023/10/19 08:55:43;;;;;;;18.27;11.90;;;;;;;16.76;86.45;97008.56;5089724;28;41085;-81
2023/10/19 08:58:12;;;;;;;18.90;12.20;;;;;;;16.79;86.30;97002.03;5107230;28;40186;-82
2023/10/19 09:00:48;;;;;;;14.90;11.10;;;;;;;16.85;86.38;97004.78;5089857;28;40768;-83
2023/10/19 09:03:16;;;;;;;17.07;11.93;;;;;;;17.11;85.91;96998.22;5089934;28;41898;-81
2023/10/19 09:05:46;;;;;;;17.13;11.93;;;;;;;17.42;85.46;96996.22;5106313;28;42965;-83
2023/10/19 09:08:17;;;;;;;17.30;12.67;;;;;;;17.62;84.72;97001.84;5108058;28;40079;-81
2023/10/19 09:10:46;;;;;;;18.27;12.93;;;;;;;17.80;84.70;97005.00;5107663;28;41710;-83
2023/10/19 09:13:18;;;;;;;19.33;13.63;;;;;;;18.12;83.84;96995.72;5090585;28;41807;-83
2023/10/19 09:15:46;;;;;;;14.97;12.23;;;;;;;18.59;82.79;96994.38;5086949;28;42312;-81
2023/10/19 09:18:15;;;;;;;17.17;13.00;;;;;;;18.71;81.92;97003.56;5094507;28;40291;-82
2023/10/19 09:20:52;;;;;;;14.10;11.43;;;;;;;18.79;81.76;97000.75;5093694;28;41745;-81
2023/10/19 09:23:21;;;;;;;15.00;11.77;;;;;;;19.05;80.95;96978.69;5077309;28;41761;-81
2023/10/19 09:25:50;;;;;;;14.47;11.60;;;;;;;19.54;80.18;96975.94;5093817;28;41139;-84
2023/10/19 09:28:19;;;;;;;14.43;12.17;;;;;;;19.83;78.20;96999.03;5094326;28;40740;-82
2023/10/19 09:30:47;;;;;;;13.50;11.23;;;;;;;20.07;77.03;96968.97;5077022;28;42438;-81
2023/10/19 09:33:17;;;;;;;15.50;10.80;;;;;;;20.76;75.51;96984.06;5077304;28;43127;-83
2023/10/19 09:35:48;;;;;;;13.20;10.90;;;;;;;21.19;73.26;96978.28;5077146;28;41019;-83
2023/10/19 09:38:16;;;;;;;13.17;10.37;;;;;;;21.75;73.00;96984.84;5092129;28;40828;-82
2023/10/19 09:40:44;;;;;;;13.37;10.73;;;;;;;22.35;71.16;96980.03;5093041;28;43226;-83
2023/10/19 09:43:17;;;;;;;14.23;11.03;;;;;;;22.60;69.09;96987.38;5092976;28;42804;-83
2023/10/19 09:45:51;;;;;;;14.73;11.03;;;;;;;22.28;68.46;96979.25;5093544;28;41929;-82
2023/10/19 09:48:20;;;;;;;14.97;10.13;;;;;;;21.91;69.02;96988.91;5091035;28;39916;-83
2023/10/19 09:50:55;;;;;;;11.97;10.00;;;;;;;21.41;69.82;96979.72;5092457;28;41370;-83
2023/10/19 09:53:24;;;;;;;10.10;9.00;;;;;;;20.99;70.84;96973.72;5089951;28;42762;-83
2023/10/19 09:55:55;;;;;;;11.93;9.97;;;;;;;20.69;71.47;96967.91;5093781;28;43538;-83
2023/10/19 09:58:27;;;;;;;9.90;8.47;;;;;;;20.59;72.52;96961.28;5123876;27;40764;-83
2023/10/19 10:00:57;;;;;;;11.87;9.63;;;;;;;20.65;72.42;96958.56;5092564;28;41849;-84
2023/10/19 10:03:44;;;;;;;10.63;9.57;;;;;;;20.75;72.43;96959.03;5092606;28;43406;-83
2023/10/19 10:06:13;;;;;;;12.13;9.90;;;;;;;20.74;72.61;96961.91;5089674;28;42019;-83
2023/10/19 10:08:43;;;;;;;12.50;10.20;;;;;;;20.72;72.66;96956.75;5075487;28;39467;-83
2023/10/19 10:11:19;;;;;;;11.17;9.53;;;;;;;20.61;72.50;96937.69;5093289;28;42532;-83
2023/10/19 10:13:50;;;;;;;9.60;8.47;;;;;;;20.69;73.24;96942.88;5091118;28;42855;-83
2023/10/19 10:16:20;;;;;;;11.73;9.97;;;;;;;21.07;72.30;96949.28;5076633;28;41884;-84
2023/10/19 10:18:50;;;;;;;12.77;10.07;;;;;;;21.55;71.84;96948.19;5076041;28;39679;-84
2023/10/19 10:21:20;;;;;;;12.37;10.40;;;;;;;22.04;70.92;96921.50;5076396;28;42142;-84
2023/10/19 10:23:49;;;;;;;10.43;8.77;;;;;;;22.64;69.38;96940.00;5075376;28;42896;-85
2023/10/19 10:26:19;;;;;;;9.83;8.83;;;;;;;23.92;67.12;96936.53;5074280;28;42176;-84
2023/10/19 10:29:09;;;;;;;8.83;7.43;;;;;;;24.50;64.49;96946.81;5073661;28;39576;-84
2023/10/19 10:31:42;;;;;;;9.13;8.23;;;;;;;24.72;61.62;96963.38;5109141;28;41881;-84
2023/10/19 10:34:10;;;;;;;7.90;7.10;;;;;;;24.45;61.54;96959.41;5091968;28;43018;-84
2023/10/19 10:37:00;;;;;;;7.27;6.57;;;;;;;24.00;61.94;96952.44;5092255;28;41152;-84
2023/10/19 10:39:28;;;;;;;7.53;6.73;;;;;;;23.51;63.74;96930.97;5091873;28;40913;-84
2023/10/19 10:41:59;;;;;;;7.70;6.50;;;;;;;23.19;64.81;96928.38;5092836;28;41628;-84
2023/10/19 10:44:40;;;;;;;7.10;6.40;;;;;;;23.00;65.53;96937.47;5090712;28;42811;-84
2023/10/19 10:47:11;;;;;;;8.23;6.20;;;;;;;22.78;65.68;96934.31;5091723;28;43789;-85
2023/10/19 10:49:49;;;;;;;9.00;6.90;;;;;;;22.47;65.94;96934.34;5108485;28;38643;-83
2023/10/19 10:52:29;;;;;;;8.20;5.97;;;;;;;22.18;66.33;96930.34;5123121;27;41877;-84
2023/10/19 10:54:56;;;;;;;7.67;5.53;;;;;;;21.98;67.47;96913.44;5124545;27;43059;-84
2023/10/19 11:05:28;;;;;;;6.33;5.33;;;;;;;21.58;68.77;96822.00;4902480;29;41747;-84
2023/10/19 11:08:07;;;;;;;6.50;5.70;;;;;;;22.11;68.95;96908.00;4979145;28;43509;-84
2023/10/19 11:10:36;;;;;;;7.37;6.23;;;;;;;22.13;69.22;96911.31;5079956;28;43465;-83
2023/10/19 11:13:04;;;;;;;7.03;6.07;;;;;;;22.13;68.88;96911.31;5075239;28;39204;-84
2023/10/19 11:15:32;;;;;;;6.57;5.97;;;;;;;21.99;68.75;96888.16;5093698;28;42649;-84
2023/10/19 11:18:01;;;;;;;6.03;5.10;;;;;;;22.16;68.68;96897.38;5080399;28;42476;-84
2023/10/19 11:20:30;;;;;;;6.53;5.87;;;;;;;22.14;68.87;96885.97;5076456;28;41819;-84
2023/10/19 11:23:00;;;;;;;8.23;5.70;;;;;;;22.13;67.99;96878.97;5092308;28;39707;-84
2023/10/19 11:25:30;;;;;;;6.50;5.90;;;;;;;22.14;67.57;96880.59;5092116;28;41010;-84
2023/10/19 11:27:58;;;;;;;7.93;6.13;;;;;;;22.05;67.96;96868.41;5075253;28;42160;-84
2023/10/19 11:30:28;;;;;;;7.03;6.30;;;;;;;22.17;67.93;96882.84;5092236;28;41870;-82
2023/10/19 11:32:57;;;;;;;6.23;5.63;;;;;;;22.14;68.44;96881.41;5093105;28;40206;-84
2023/10/19 11:35:26;;;;;;;6.10;5.50;;;;;;;21.91;68.38;96856.84;5075282;28;40242;-83
2023/10/19 11:37:56;;;;;;;7.10;6.30;;;;;;;22.04;68.51;96869.47;5092912;28;43612;-84
2023/10/19 11:40:25;;;;;;;8.60;6.80;;;;;;;22.28;68.30;96887.56;5092160;28;41366;-84
2023/10/19 11:42:54;;;;;;;5.80;5.20;;;;;;;22.46;67.61;96882.25;5091787;28;38949;-84
2023/10/19 11:45:23;;;;;;;5.77;5.10;;;;;;;22.57;67.30;96861.84;5093196;28;41767;-82
2023/10/19 11:47:51;;;;;;;6.10;5.43;;;;;;;22.57;66.60;96853.75;5074440;28;42007;-83
2023/10/19 11:50:19;;;;;;;6.83;6.13;;;;;;;22.88;65.86;96887.94;5074849;28;42267;-83
2023/10/19 11:52:47;;;;;;;6.40;5.50;;;;;;;22.95;65.95;96886.03;5091382;28;39430;-82
2023/10/19 11:55:16;;;;;;;7.63;5.70;;;;;;;23.07;65.30;96880.72;5092677;28;41691;-83
2023/10/19 11:57:44;;;;;;;7.17;5.83;;;;;;;23.20;64.69;96870.63;5092531;28;43733;-83
2023/10/19 12:00:19;;;;;;;7.20;6.50;;;;;;;23.74;64.39;96881.69;5091875;28;41520;-84
2023/10/19 12:02:47;;;;;;;7.37;6.17;;;;;;;24.00;62.90;96828.06;5125528;27;40072;-84
2023/10/19 12:05:15;;;;;;;7.47;6.47;;;;;;;24.60;61.02;96887.53;5074546;28;41081;-85
2023/10/19 12:07:44;;;;;;;7.37;6.67;;;;;;;24.36;60.17;96877.69;5108543;28;43032;-83
2023/10/19 12:10:13;;;;;;;7.03;6.07;;;;;;;24.11;60.18;96871.63;5091104;28;42209;-82
2023/10/19 12:12:42;;;;;;;6.77;5.67;;;;;;;23.96;61.28;96880.13;5091779;28;40109;-83
2023/10/19 12:15:12;;;;;;;6.67;5.97;;;;;;;23.77;62.56;96868.53;5074315;28;40950;-82
2023/10/19 12:17:39;;;;;;;6.90;6.20;;;;;;;23.60;62.43;96878.31;5074759;28;43995;-83
2023/10/19 12:20:08;;;;;;;7.43;6.30;;;;;;;23.37;62.06;96880.84;5074244;28;41590;-82
2023/10/19 12:22:38;;;;;;;6.27;5.67;;;;;;;23.23;62.97;96880.16;5125228;27;39977;-83
2023/10/19 12:25:06;;;;;;;6.57;5.63;;;;;;;23.16;63.26;96876.69;5074439;28;42106;-85
2023/10/19 12:27:34;;;;;;;7.47;6.77;;;;;;;23.09;63.96;96871.34;5091816;28;42881;-81
2023/10/19 12:30:13;;;;;;;5.83;5.30;;;;;;;23.11;63.70;96871.97;5073903;28;42560;-84
2023/10/19 12:32:40;;;;;;;7.97;5.90;;;;;;;23.06;63.49;96863.69;5090866;28;39025;-84
2023/10/19 12:35:11;;;;;;;8.83;6.63;;;;;;;23.06;63.57;96858.28;5090998;28;40562;-83
2023/10/19 12:37:46;;;;;;;7.10;6.07;;;;;;;23.47;62.87;96871.16;5090213;28;43941;-81
2023/10/19 12:40:26;;;;;;;7.30;5.90;;;;;;;23.80;62.11;96859.97;5089012;28;42279;-85
2023/10/19 12:42:54;;;;;;;5.63;5.07;;;;;;;23.90;61.01;96879.16;5088806;28;40698;-83
2023/10/19 12:45:23;;;;;;;6.60;5.47;;;;;;;23.71;62.09;96871.31;5072872;28;41516;-86
2023/10/19 12:47:51;;;;;;;7.67;6.20;;;;;;;23.46;62.40;96860.56;5090462;28;42728;-83
2023/10/19 12:50:22;;;;;;;6.93;6.00;;;;;;;23.00;63.35;96807.88;5089700;28;41212;-83
2023/10/19 12:52:50;;;;;;;6.87;5.00;;;;;;;23.07;64.44;96843.75;5092829;28;39892;-84
2023/10/19 12:55:18;;;;;;;7.00;4.80;;;;;;;22.84;65.02;96827.38;5094257;28;41793;-85
2023/10/19 12:57:45;;;;;;;6.37;5.47;;;;;;;22.76;64.92;96841.13;5093586;28;42819;-82
2023/10/19 13:00:25;;;;;;;6.07;5.20;;;;;;;22.26;65.22;96791.75;5127341;27;41541;-84
2023/10/19 13:02:59;;;;;;;7.67;5.53;;;;;;;22.34;65.71;96837.31;5110025;28;39605;-84
2023/10/19 13:05:28;;;;;;;6.07;5.37;;;;;;;22.13;66.02;96827.75;5075712;28;41162;-85
2023/10/19 13:07:58;;;;;;;6.20;5.60;;;;;;;21.93;66.39;96821.59;5094083;28;42745;-85
2023/10/19 13:10:32;;;;;;;6.73;4.77;;;;;;;21.66;66.75;96808.28;5092684;28;42569;-85
2023/10/19 13:13:03;;;;;;;5.27;4.77;;;;;;;21.55;67.34;96816.22;5093660;28;40974;-81
2023/10/19 13:15:32;;;;;;;6.40;5.17;;;;;;;21.40;67.57;96805.72;5092124;28;41798;-84
2023/10/19 13:18:01;;;;;;;7.10;4.67;;;;;;;21.50;68.13;96819.56;5110629;28;42968;-83
2023/10/19 13:20:33;;;;;;;6.20;4.50;;;;;;;21.49;68.38;96834.06;5094997;28;42205;-82
2023/10/19 13:23:02;;;;;;;9.27;5.20;;;;;;;21.30;69.34;96808.03;5093690;28;38925;-83
2023/10/19 13:28:13;;;;;;;4.87;4.37;;;;;;;21.28;71.79;96799.34;5095471;28;43050;-84
2023/10/19 13:30:43;;;;;;;4.93;4.27;;;;;;;21.15;72.23;96784.03;5076525;28;41170;-82
2023/10/19 13:33:13;;;;;;;6.00;4.77;;;;;;;21.19;73.21;96787.16;5076700;28;40041;-83
2023/10/19 13:35:42;;;;;;;6.40;5.03;;;;;;;21.17;73.11;96793.56;5110273;28;42008;-82
2023/10/19 13:38:11;;;;;;;7.73;4.90;;;;;;;21.09;73.82;96790.28;5093816;28;43468;-81
2023/10/19 13:40:39;;;;;;;6.80;4.93;;;;;;;20.98;73.93;96797.16;5094237;28;42261;-84
2023/10/19 13:43:07;;;;;;;5.20;4.33;;;;;;;20.80;74.29;96784.34;5091432;28;39925;-81
2023/10/19 13:45:54;;;;;;;6.17;4.90;;;;;;;20.73;74.68;96782.72;5090507;28;42641;-84
2023/10/19 13:48:23;;;;;;;6.20;5.27;;;;;;;20.68;74.59;96777.13;5092095;28;41776;-83
2023/10/19 13:50:53;;;;;;;5.03;4.40;;;;;;;20.63;75.57;96774.28;5075368;28;41941;-81
2023/10/19 13:53:20;;;;;;;7.80;5.17;;;;;;;20.30;76.00;96726.69;5092106;28;40017;-84
2023/10/19 13:55:48;;;;;;;6.40;5.53;;;;;;;20.44;76.79;96763.31;5092210;28;40790;-83
2023/10/19 13:58:16;;;;;;;7.77;5.97;;;;;;;20.40;77.05;96764.75;5075034;28;42044;-83
2023/10/19 14:00:44;;;;;;;8.07;6.20;;;;;;;20.46;77.34;96767.66;5093235;28;42807;-83